WZZ4782 EPWA-EDLW
Flight info
| Callsign | WZZ4782 |
|---|---|
| Flight time | 1h 28m |
| Altitude | 34000 |
| Route | LOLSI DCT DIBLO DCT INDIG DCT SUBIX DCT HLZ L980 OSNAD M170 HMM N853 DOMEG DOMEG2A |
| Aircraft | A321/M-SDE1E2E3FGIJ1J4RWXY/LB1 |
Departure
| Time | 2026-05-07 11:37 |
|---|---|
| Airport | Warsaw Chopin Airport (EPWA) |
Arrival
| Time | 2026-05-07 13:05 |
|---|---|
| Airport | Dortmund Airport (EDLW) |
| Time | Latitude | Longitude | Altitude | Speed | Heading |
|---|---|---|---|---|---|
| 2026-05-07 10:51 | 52.17089 | 20.96768 | 312 ft | 0 kts | 275° |
| 2026-05-07 11:31 | 52.17089 | 20.96766 | 339 ft | 1 kts | 275° |
| 2026-05-07 11:31 | 52.17090 | 20.96745 | 337 ft | 3 kts | 275° |
| 2026-05-07 11:31 | 52.17085 | 20.96703 | 339 ft | 5 kts | 245° |
| 2026-05-07 11:32 | 52.17013 | 20.96726 | 337 ft | 7 kts | 152° |
| 2026-05-07 11:32 | 52.16962 | 20.96771 | 335 ft | 9 kts | 152° |
| 2026-05-07 11:32 | 52.16901 | 20.96824 | 339 ft | 11 kts | 152° |
| 2026-05-07 11:33 | 52.16829 | 20.96887 | 337 ft | 13 kts | 152° |
| 2026-05-07 11:33 | 52.16748 | 20.96958 | 336 ft | 12 kts | 152° |
| 2026-05-07 11:33 | 52.16685 | 20.97013 | 337 ft | 8 kts | 150° |
| 2026-05-07 11:33 | 52.16652 | 20.97094 | 335 ft | 10 kts | 115° |
| 2026-05-07 11:34 | 52.16621 | 20.97202 | 339 ft | 11 kts | 115° |
| 2026-05-07 11:34 | 52.16587 | 20.97327 | 335 ft | 13 kts | 114° |
| 2026-05-07 11:34 | 52.16547 | 20.97469 | 338 ft | 15 kts | 115° |
| 2026-05-07 11:34 | 52.16502 | 20.97626 | 337 ft | 16 kts | 115° |
| 2026-05-07 11:35 | 52.16466 | 20.97755 | 338 ft | 9 kts | 114° |
| 2026-05-07 11:35 | 52.16438 | 20.97802 | 338 ft | 4 kts | 158° |
| 2026-05-07 11:35 | 52.16407 | 20.97796 | 337 ft | 5 kts | 197° |
| 2026-05-07 11:35 | 52.16367 | 20.97768 | 339 ft | 7 kts | 205° |
| 2026-05-07 11:36 | 52.16315 | 20.97730 | 337 ft | 7 kts | 205° |
| 2026-05-07 11:36 | 52.16301 | 20.97711 | 337 ft | 2 kts | 240° |
| 2026-05-07 11:36 | 52.16304 | 20.97680 | 336 ft | 1 kts | 292° |
| 2026-05-07 11:36 | 52.16306 | 20.97674 | 337 ft | 6 kts | 292° |
| 2026-05-07 11:37 | 52.16437 | 20.97204 | 332 ft | 85 kts | 294° |
| 2026-05-07 11:37 | 52.16779 | 20.95980 | 361 ft | 147 kts | 295° |
| 2026-05-07 11:37 | 52.17060 | 20.94973 | 865 ft | 138 kts | 296° |
| 2026-05-07 11:37 | 52.17417 | 20.93571 | 1634 ft | 136 kts | 294° |
| 2026-05-07 11:38 | 52.17808 | 20.92131 | 2133 ft | 141 kts | 294° |
| 2026-05-07 11:38 | 52.18172 | 20.90654 | 2682 ft | 142 kts | 278° |
| 2026-05-07 11:38 | 52.18155 | 20.89029 | 3216 ft | 147 kts | 264° |
| 2026-05-07 11:38 | 52.18070 | 20.87277 | 3684 ft | 164 kts | 265° |
| 2026-05-07 11:39 | 52.17985 | 20.85307 | 4043 ft | 185 kts | 264° |
| 2026-05-07 11:39 | 52.17967 | 20.83088 | 4315 ft | 209 kts | 276° |
| 2026-05-07 11:39 | 52.18299 | 20.80659 | 4561 ft | 236 kts | 281° |
| 2026-05-07 11:39 | 52.18694 | 20.77895 | 5010 ft | 256 kts | 280° |
| 2026-05-07 11:40 | 52.19097 | 20.75068 | 5751 ft | 262 kts | 280° |
| 2026-05-07 11:40 | 52.19479 | 20.72157 | 6630 ft | 263 kts | 274° |
| 2026-05-07 11:40 | 52.19434 | 20.69192 | 7426 ft | 263 kts | 257° |
| 2026-05-07 11:40 | 52.18890 | 20.66344 | 8239 ft | 264 kts | 249° |
| 2026-05-07 11:41 | 52.18260 | 20.63519 | 9086 ft | 267 kts | 249° |
| 2026-05-07 11:41 | 52.17623 | 20.60665 | 9944 ft | 269 kts | 249° |
| 2026-05-07 11:41 | 52.16967 | 20.57730 | 10397 ft | 286 kts | 249° |
| 2026-05-07 11:41 | 52.16257 | 20.54553 | 10655 ft | 309 kts | 249° |
| 2026-05-07 11:42 | 52.15601 | 20.51160 | 11219 ft | 319 kts | 256° |
| 2026-05-07 11:42 | 52.15381 | 20.47528 | 11913 ft | 327 kts | 268° |
| 2026-05-07 11:42 | 52.15527 | 20.43804 | 12627 ft | 332 kts | 271° |
| 2026-05-07 11:42 | 52.15689 | 20.40038 | 13340 ft | 335 kts | 270° |
| 2026-05-07 11:43 | 52.15848 | 20.36223 | 14004 ft | 339 kts | 270° |
| 2026-05-07 11:43 | 52.16004 | 20.32366 | 14631 ft | 343 kts | 270° |
| 2026-05-07 11:43 | 52.16160 | 20.28475 | 15292 ft | 346 kts | 270° |
| 2026-05-07 11:43 | 52.16315 | 20.24545 | 15941 ft | 349 kts | 270° |
| 2026-05-07 11:44 | 52.16471 | 20.20583 | 16611 ft | 352 kts | 270° |
| 2026-05-07 11:44 | 52.16625 | 20.16586 | 17265 ft | 355 kts | 270° |
| 2026-05-07 11:44 | 52.16782 | 20.12552 | 17918 ft | 359 kts | 270° |
| 2026-05-07 11:44 | 52.16941 | 20.08479 | 18516 ft | 362 kts | 270° |
| 2026-05-07 11:45 | 52.17099 | 20.04373 | 19104 ft | 365 kts | 270° |
| 2026-05-07 11:45 | 52.17256 | 20.00235 | 19702 ft | 367 kts | 270° |
| 2026-05-07 11:45 | 52.17412 | 19.96082 | 20295 ft | 369 kts | 270° |
| 2026-05-07 11:45 | 52.17566 | 19.91897 | 20896 ft | 371 kts | 270° |
| 2026-05-07 11:46 | 52.17679 | 19.87692 | 21490 ft | 371 kts | 265° |
| 2026-05-07 11:46 | 52.17426 | 19.83518 | 22076 ft | 371 kts | 258° |
| 2026-05-07 11:46 | 52.17047 | 19.79348 | 22670 ft | 373 kts | 258° |
| 2026-05-07 11:46 | 52.16667 | 19.75154 | 23242 ft | 375 kts | 258° |
| 2026-05-07 11:47 | 52.16289 | 19.70939 | 23757 ft | 377 kts | 258° |
| 2026-05-07 11:47 | 52.15911 | 19.66697 | 24197 ft | 379 kts | 258° |
| 2026-05-07 11:47 | 52.15532 | 19.62438 | 24658 ft | 381 kts | 258° |
| 2026-05-07 11:47 | 52.15147 | 19.58149 | 25111 ft | 383 kts | 258° |
| 2026-05-07 11:48 | 52.14756 | 19.53843 | 25559 ft | 385 kts | 257° |
| 2026-05-07 11:48 | 52.14359 | 19.49518 | 26006 ft | 387 kts | 257° |
| 2026-05-07 11:48 | 52.13959 | 19.45177 | 26438 ft | 389 kts | 257° |
| 2026-05-07 11:48 | 52.13554 | 19.40809 | 26865 ft | 391 kts | 257° |
| 2026-05-07 11:49 | 52.13152 | 19.36476 | 27277 ft | 393 kts | 256° |
| 2026-05-07 11:49 | 52.12743 | 19.32066 | 27692 ft | 395 kts | 256° |
| 2026-05-07 11:49 | 52.12326 | 19.27571 | 28103 ft | 398 kts | 256° |
| 2026-05-07 11:49 | 52.11915 | 19.23173 | 28494 ft | 400 kts | 256° |
| 2026-05-07 11:50 | 52.11494 | 19.18685 | 28892 ft | 402 kts | 256° |
| 2026-05-07 11:50 | 52.11067 | 19.14181 | 29277 ft | 404 kts | 256° |
| 2026-05-07 11:50 | 52.10636 | 19.09652 | 29652 ft | 406 kts | 256° |
| 2026-05-07 11:50 | 52.10199 | 19.05099 | 30010 ft | 408 kts | 255° |
| 2026-05-07 11:51 | 52.09759 | 19.00529 | 30323 ft | 410 kts | 255° |
| 2026-05-07 11:51 | 52.09317 | 18.95929 | 30669 ft | 413 kts | 255° |
| 2026-05-07 11:51 | 52.08870 | 18.91312 | 30983 ft | 415 kts | 255° |
| 2026-05-07 11:51 | 52.08419 | 18.86669 | 31313 ft | 416 kts | 255° |
| 2026-05-07 11:52 | 52.07967 | 18.82025 | 31716 ft | 416 kts | 255° |
| 2026-05-07 11:52 | 52.07517 | 18.77393 | 32190 ft | 413 kts | 255° |
| 2026-05-07 11:52 | 52.07071 | 18.72793 | 32696 ft | 411 kts | 255° |
| 2026-05-07 11:52 | 52.06624 | 18.68220 | 33182 ft | 409 kts | 255° |
| 2026-05-07 11:53 | 52.06176 | 18.63674 | 33661 ft | 406 kts | 255° |
| 2026-05-07 11:53 | 52.05724 | 18.59146 | 33941 ft | 406 kts | 255° |
| 2026-05-07 11:53 | 52.05278 | 18.54666 | 33986 ft | 397 kts | 255° |
| 2026-05-07 11:54 | 52.04401 | 18.45914 | 33989 ft | 390 kts | 255° |
| 2026-05-07 11:54 | 52.03519 | 18.37223 | 33986 ft | 390 kts | 255° |
| 2026-05-07 11:55 | 52.02630 | 18.28546 | 33992 ft | 390 kts | 255° |
| 2026-05-07 11:55 | 52.01736 | 18.19869 | 33991 ft | 390 kts | 255° |
| 2026-05-07 11:56 | 52.00832 | 18.11196 | 33991 ft | 390 kts | 255° |
| 2026-05-07 11:56 | 51.99986 | 18.02500 | 33991 ft | 393 kts | 260° |
| 2026-05-07 11:57 | 52.00467 | 17.93586 | 33993 ft | 407 kts | 274° |
| 2026-05-07 11:57 | 52.01621 | 17.84583 | 34025 ft | 408 kts | 274° |
| 2026-05-07 11:58 | 52.02762 | 17.75535 | 33998 ft | 409 kts | 274° |
| 2026-05-07 11:58 | 52.03896 | 17.66465 | 33997 ft | 410 kts | 274° |
| 2026-05-07 11:59 | 52.05024 | 17.57381 | 33997 ft | 411 kts | 274° |
| 2026-05-07 11:59 | 52.06147 | 17.48278 | 34011 ft | 411 kts | 274° |
| 2026-05-07 12:00 | 52.07264 | 17.39167 | 34024 ft | 412 kts | 274° |
| 2026-05-07 12:00 | 52.08372 | 17.30022 | 34005 ft | 413 kts | 274° |
| 2026-05-07 12:01 | 52.09479 | 17.20840 | 34000 ft | 414 kts | 274° |
| 2026-05-07 12:01 | 52.10584 | 17.11630 | 34004 ft | 415 kts | 274° |
| 2026-05-07 12:02 | 52.11688 | 17.02410 | 34007 ft | 416 kts | 274° |
| 2026-05-07 12:02 | 52.12784 | 16.93177 | 34047 ft | 416 kts | 274° |
| 2026-05-07 12:03 | 52.13867 | 16.83908 | 34022 ft | 417 kts | 274° |
| 2026-05-07 12:03 | 52.14941 | 16.74683 | 34021 ft | 418 kts | 275° |
| 2026-05-07 12:04 | 52.16028 | 16.65363 | 34029 ft | 419 kts | 274° |
| 2026-05-07 12:04 | 52.17096 | 16.56033 | 34023 ft | 420 kts | 274° |
| 2026-05-07 12:05 | 52.18160 | 16.46694 | 34015 ft | 419 kts | 274° |
| 2026-05-07 12:05 | 52.19225 | 16.37326 | 34030 ft | 421 kts | 275° |
| 2026-05-07 12:06 | 52.20284 | 16.27950 | 34006 ft | 421 kts | 275° |
| 2026-05-07 12:06 | 52.21329 | 16.18549 | 34007 ft | 422 kts | 275° |
| 2026-05-07 12:07 | 52.22367 | 16.09129 | 34028 ft | 423 kts | 275° |
| 2026-05-07 12:07 | 52.23406 | 15.99658 | 34084 ft | 427 kts | 275° |
| 2026-05-07 12:07 | 52.23928 | 15.94873 | 34350 ft | 430 kts | 275° |
| 2026-05-07 12:08 | 52.24453 | 15.90054 | 34604 ft | 432 kts | 275° |
| 2026-05-07 12:08 | 52.24978 | 15.85221 | 34894 ft | 433 kts | 275° |
| 2026-05-07 12:08 | 52.25503 | 15.80380 | 35205 ft | 433 kts | 275° |
| 2026-05-07 12:08 | 52.26024 | 15.75552 | 35527 ft | 433 kts | 275° |
| 2026-05-07 12:09 | 52.26544 | 15.70714 | 35844 ft | 432 kts | 276° |
| 2026-05-07 12:09 | 52.27061 | 15.65869 | 36009 ft | 433 kts | 276° |
| 2026-05-07 12:09 | 52.27576 | 15.61029 | 36027 ft | 433 kts | 276° |
| 2026-05-07 12:10 | 52.28599 | 15.51339 | 36041 ft | 434 kts | 275° |
| 2026-05-07 12:10 | 52.29108 | 15.46458 | 36218 ft | 438 kts | 276° |
| 2026-05-07 12:10 | 52.29620 | 15.41532 | 36409 ft | 441 kts | 276° |
| 2026-05-07 12:10 | 52.30128 | 15.36657 | 36668 ft | 442 kts | 276° |
| 2026-05-07 12:11 | 52.30642 | 15.31707 | 36944 ft | 442 kts | 276° |
| 2026-05-07 12:11 | 52.31154 | 15.26758 | 37217 ft | 442 kts | 276° |
| 2026-05-07 12:11 | 52.31663 | 15.21808 | 37483 ft | 442 kts | 276° |
| 2026-05-07 12:11 | 52.32169 | 15.16859 | 37741 ft | 442 kts | 276° |
| 2026-05-07 12:12 | 52.32674 | 15.11906 | 37970 ft | 442 kts | 276° |
| 2026-05-07 12:12 | 52.33681 | 15.01970 | 38024 ft | 443 kts | 276° |
| 2026-05-07 12:13 | 52.34680 | 14.92021 | 38022 ft | 444 kts | 276° |
| 2026-05-07 12:13 | 52.35673 | 14.82053 | 38023 ft | 444 kts | 276° |
| 2026-05-07 12:14 | 52.36660 | 14.72082 | 38031 ft | 444 kts | 276° |
| 2026-05-07 12:14 | 52.37631 | 14.62106 | 38031 ft | 444 kts | 275° |
| 2026-05-07 12:15 | 52.38049 | 14.52088 | 38035 ft | 440 kts | 268° |
| 2026-05-07 12:15 | 52.38140 | 14.42065 | 38047 ft | 441 kts | 268° |
| 2026-05-07 12:16 | 52.38237 | 14.32021 | 38045 ft | 441 kts | 268° |
| 2026-05-07 12:16 | 52.38334 | 14.21972 | 38046 ft | 442 kts | 268° |
| 2026-05-07 12:17 | 52.38423 | 14.11918 | 38047 ft | 442 kts | 268° |
| 2026-05-07 12:17 | 52.38497 | 14.01858 | 38067 ft | 442 kts | 267° |
| 2026-05-07 12:18 | 52.38565 | 13.91780 | 38069 ft | 442 kts | 268° |
| 2026-05-07 12:18 | 52.38630 | 13.81786 | 38069 ft | 442 kts | 268° |
| 2026-05-07 12:19 | 52.38682 | 13.71713 | 38072 ft | 442 kts | 267° |
| 2026-05-07 12:19 | 52.38718 | 13.61643 | 38081 ft | 442 kts | 267° |
| 2026-05-07 12:20 | 52.38743 | 13.51581 | 38076 ft | 442 kts | 267° |
| 2026-05-07 12:20 | 52.38767 | 13.41517 | 38081 ft | 442 kts | 268° |
| 2026-05-07 12:21 | 52.38778 | 13.31542 | 38075 ft | 442 kts | 267° |
| 2026-05-07 12:21 | 52.38779 | 13.21462 | 38068 ft | 442 kts | 267° |
| 2026-05-07 12:22 | 52.38779 | 13.11395 | 38051 ft | 442 kts | 267° |
| 2026-05-07 12:22 | 52.38766 | 13.01324 | 38051 ft | 442 kts | 267° |
| 2026-05-07 12:23 | 52.38747 | 12.91252 | 38059 ft | 443 kts | 268° |
| 2026-05-07 12:23 | 52.38714 | 12.81173 | 38056 ft | 443 kts | 267° |
| 2026-05-07 12:24 | 52.38675 | 12.71090 | 38056 ft | 443 kts | 268° |
| 2026-05-07 12:24 | 52.38632 | 12.61016 | 38054 ft | 443 kts | 267° |
| 2026-05-07 12:25 | 52.38577 | 12.50933 | 38059 ft | 443 kts | 267° |
| 2026-05-07 12:25 | 52.38515 | 12.40863 | 38067 ft | 443 kts | 267° |
| 2026-05-07 12:26 | 52.38435 | 12.30850 | 38063 ft | 443 kts | 267° |
| 2026-05-07 12:26 | 52.38354 | 12.20767 | 38061 ft | 443 kts | 267° |
| 2026-05-07 12:27 | 52.38272 | 12.10692 | 38062 ft | 443 kts | 267° |
| 2026-05-07 12:27 | 52.38174 | 12.00605 | 38063 ft | 443 kts | 267° |
| 2026-05-07 12:28 | 52.38068 | 11.90528 | 38071 ft | 443 kts | 267° |
| 2026-05-07 12:28 | 52.37974 | 11.82069 | 38069 ft | 444 kts | 267° |
| 2026-05-07 12:29 | 52.37854 | 11.72038 | 38070 ft | 443 kts | 267° |
| 2026-05-07 12:29 | 52.37721 | 11.61948 | 38067 ft | 444 kts | 267° |
| 2026-05-07 12:30 | 52.37575 | 11.51855 | 38073 ft | 444 kts | 267° |
| 2026-05-07 12:30 | 52.37429 | 11.41760 | 38080 ft | 444 kts | 267° |
| 2026-05-07 12:31 | 52.37285 | 11.31669 | 38077 ft | 444 kts | 267° |
| 2026-05-07 12:31 | 52.37122 | 11.21568 | 38075 ft | 444 kts | 267° |
| 2026-05-07 12:32 | 52.36946 | 11.11486 | 38077 ft | 444 kts | 267° |
| 2026-05-07 12:32 | 52.36759 | 11.01386 | 38078 ft | 444 kts | 267° |
| 2026-05-07 12:33 | 52.36463 | 10.86242 | 38082 ft | 444 kts | 267° |
| 2026-05-07 12:33 | 52.35939 | 10.76194 | 38080 ft | 443 kts | 258° |
| 2026-05-07 12:34 | 52.34751 | 10.66311 | 38081 ft | 443 kts | 258° |
| 2026-05-07 12:34 | 52.33555 | 10.56413 | 38081 ft | 443 kts | 258° |
| 2026-05-07 12:35 | 52.32343 | 10.46530 | 38082 ft | 443 kts | 257° |
| 2026-05-07 12:35 | 52.31126 | 10.36652 | 38088 ft | 444 kts | 257° |
| 2026-05-07 12:36 | 52.29900 | 10.26772 | 37825 ft | 443 kts | 257° |
| 2026-05-07 12:36 | 52.29286 | 10.21845 | 37557 ft | 442 kts | 258° |
| 2026-05-07 12:36 | 52.28672 | 10.16929 | 37291 ft | 442 kts | 258° |
| 2026-05-07 12:37 | 52.28057 | 10.12010 | 37037 ft | 442 kts | 257° |
| 2026-05-07 12:37 | 52.27442 | 10.07104 | 36775 ft | 441 kts | 257° |
| 2026-05-07 12:37 | 52.26823 | 10.02202 | 36507 ft | 440 kts | 258° |
| 2026-05-07 12:37 | 52.26200 | 9.97310 | 35966 ft | 440 kts | 258° |
| 2026-05-07 12:38 | 52.25574 | 9.92411 | 35288 ft | 443 kts | 258° |
| 2026-05-07 12:38 | 52.25066 | 9.87458 | 34762 ft | 441 kts | 265° |
| 2026-05-07 12:38 | 52.24917 | 9.82470 | 34272 ft | 440 kts | 268° |
| 2026-05-07 12:38 | 52.24796 | 9.77491 | 33718 ft | 439 kts | 268° |
| 2026-05-07 12:39 | 52.24669 | 9.72546 | 33326 ft | 432 kts | 268° |
| 2026-05-07 12:39 | 52.24537 | 9.67703 | 33218 ft | 420 kts | 268° |
| 2026-05-07 12:39 | 52.24404 | 9.63010 | 33070 ft | 409 kts | 268° |
| 2026-05-07 12:39 | 52.24272 | 9.58352 | 32078 ft | 417 kts | 267° |
| 2026-05-07 12:40 | 52.24136 | 9.53551 | 30964 ft | 430 kts | 267° |
| 2026-05-07 12:40 | 52.23998 | 9.48746 | 30426 ft | 427 kts | 267° |
| 2026-05-07 12:40 | 52.23857 | 9.43935 | 29917 ft | 422 kts | 266° |
| 2026-05-07 12:40 | 52.23721 | 9.39179 | 29438 ft | 416 kts | 267° |
| 2026-05-07 12:41 | 52.23584 | 9.34498 | 28981 ft | 410 kts | 267° |
| 2026-05-07 12:41 | 52.23445 | 9.29890 | 28536 ft | 404 kts | 267° |
| 2026-05-07 12:41 | 52.23308 | 9.25342 | 28099 ft | 399 kts | 266° |
| 2026-05-07 12:41 | 52.23173 | 9.20847 | 27675 ft | 395 kts | 266° |
| 2026-05-07 12:42 | 52.23039 | 9.16398 | 27253 ft | 391 kts | 266° |
| 2026-05-07 12:42 | 52.22903 | 9.11988 | 26848 ft | 387 kts | 266° |
| 2026-05-07 12:42 | 52.22766 | 9.07627 | 26443 ft | 383 kts | 266° |
| 2026-05-07 12:42 | 52.22629 | 9.03319 | 26042 ft | 379 kts | 266° |
| 2026-05-07 12:43 | 52.22489 | 8.99036 | 25642 ft | 376 kts | 266° |
| 2026-05-07 12:43 | 52.22351 | 8.94790 | 25243 ft | 373 kts | 266° |
| 2026-05-07 12:43 | 52.22213 | 8.90583 | 24837 ft | 370 kts | 266° |
| 2026-05-07 12:43 | 52.22075 | 8.86404 | 24435 ft | 367 kts | 266° |
| 2026-05-07 12:44 | 52.21937 | 8.82259 | 24032 ft | 365 kts | 266° |
| 2026-05-07 12:44 | 52.21799 | 8.78141 | 23607 ft | 362 kts | 266° |
| 2026-05-07 12:44 | 52.21662 | 8.74055 | 23154 ft | 359 kts | 266° |
| 2026-05-07 12:44 | 52.21523 | 8.70018 | 22732 ft | 355 kts | 266° |
| 2026-05-07 12:45 | 52.21384 | 8.66027 | 22317 ft | 350 kts | 266° |
| 2026-05-07 12:45 | 52.21246 | 8.62090 | 21902 ft | 346 kts | 266° |
| 2026-05-07 12:45 | 52.21109 | 8.58190 | 21481 ft | 343 kts | 266° |
| 2026-05-07 12:45 | 52.20971 | 8.54330 | 21073 ft | 339 kts | 266° |
| 2026-05-07 12:46 | 52.20830 | 8.50511 | 20660 ft | 336 kts | 266° |
| 2026-05-07 12:46 | 52.20692 | 8.46729 | 20260 ft | 333 kts | 266° |
| 2026-05-07 12:46 | 52.20557 | 8.42984 | 19854 ft | 330 kts | 266° |
| 2026-05-07 12:46 | 52.20418 | 8.39265 | 19445 ft | 327 kts | 266° |
| 2026-05-07 12:47 | 52.20276 | 8.35580 | 19037 ft | 325 kts | 266° |
| 2026-05-07 12:47 | 52.20001 | 8.31946 | 18638 ft | 322 kts | 257° |
| 2026-05-07 12:47 | 52.19265 | 8.28510 | 18220 ft | 321 kts | 244° |
| 2026-05-07 12:47 | 52.18095 | 8.25433 | 17798 ft | 319 kts | 232° |
| 2026-05-07 12:48 | 52.16603 | 8.22785 | 17401 ft | 316 kts | 227° |
| 2026-05-07 12:48 | 52.15081 | 8.20219 | 17003 ft | 313 kts | 227° |
| 2026-05-07 12:48 | 52.13579 | 8.17675 | 16613 ft | 310 kts | 227° |
| 2026-05-07 12:48 | 52.12088 | 8.15153 | 16232 ft | 308 kts | 227° |
| 2026-05-07 12:49 | 52.10608 | 8.12649 | 15855 ft | 306 kts | 228° |
| 2026-05-07 12:49 | 52.09132 | 8.10164 | 15471 ft | 305 kts | 225° |
| 2026-05-07 12:49 | 52.07352 | 8.08210 | 15100 ft | 318 kts | 207° |
| 2026-05-07 12:49 | 52.05306 | 8.06772 | 14731 ft | 322 kts | 204° |
| 2026-05-07 12:50 | 52.03243 | 8.05389 | 14361 ft | 321 kts | 203° |
| 2026-05-07 12:50 | 52.01270 | 8.03818 | 14006 ft | 319 kts | 212° |
| 2026-05-07 12:50 | 51.99481 | 8.01720 | 13610 ft | 317 kts | 222° |
| 2026-05-07 12:50 | 51.97833 | 7.99369 | 13205 ft | 316 kts | 223° |
| 2026-05-07 12:51 | 51.96199 | 7.96993 | 12715 ft | 316 kts | 225° |
| 2026-05-07 12:51 | 51.94585 | 7.94567 | 12254 ft | 316 kts | 224° |
| 2026-05-07 12:51 | 51.92992 | 7.92133 | 11859 ft | 313 kts | 225° |
| 2026-05-07 12:51 | 51.91416 | 7.89714 | 11462 ft | 311 kts | 225° |
| 2026-05-07 12:52 | 51.89852 | 7.87316 | 11086 ft | 308 kts | 224° |
| 2026-05-07 12:52 | 51.88299 | 7.84940 | 10698 ft | 306 kts | 224° |
| 2026-05-07 12:52 | 51.86754 | 7.82584 | 10295 ft | 305 kts | 224° |
| 2026-05-07 12:52 | 51.85219 | 7.80255 | 10027 ft | 299 kts | 223° |
| 2026-05-07 12:53 | 51.83721 | 7.77987 | 9767 ft | 292 kts | 224° |
| 2026-05-07 12:53 | 51.82251 | 7.75764 | 9466 ft | 288 kts | 224° |
| 2026-05-07 12:53 | 51.80792 | 7.73560 | 9094 ft | 286 kts | 224° |
| 2026-05-07 12:53 | 51.79340 | 7.71369 | 8718 ft | 285 kts | 223° |
| 2026-05-07 12:54 | 51.77897 | 7.69195 | 8341 ft | 283 kts | 224° |
| 2026-05-07 12:54 | 51.76460 | 7.67029 | 7961 ft | 282 kts | 224° |
| 2026-05-07 12:54 | 51.75031 | 7.64873 | 7593 ft | 281 kts | 224° |
| 2026-05-07 12:54 | 51.73604 | 7.62720 | 7221 ft | 280 kts | 224° |
| 2026-05-07 12:55 | 51.72084 | 7.60770 | 6850 ft | 280 kts | 211° |
| 2026-05-07 12:55 | 51.70284 | 7.59604 | 6479 ft | 279 kts | 193° |
| 2026-05-07 12:55 | 51.68353 | 7.59350 | 6080 ft | 279 kts | 175° |
| 2026-05-07 12:55 | 51.66439 | 7.59783 | 5709 ft | 278 kts | 171° |
| 2026-05-07 12:56 | 51.64535 | 7.60262 | 5338 ft | 277 kts | 171° |
| 2026-05-07 12:56 | 51.62626 | 7.60748 | 4904 ft | 279 kts | 171° |
| 2026-05-07 12:56 | 51.60703 | 7.61237 | 4448 ft | 281 kts | 171° |
| 2026-05-07 12:56 | 51.58772 | 7.61726 | 4047 ft | 279 kts | 171° |
| 2026-05-07 12:57 | 51.56876 | 7.62205 | 3708 ft | 272 kts | 171° |
| 2026-05-07 12:57 | 51.55040 | 7.62669 | 3459 ft | 262 kts | 171° |
| 2026-05-07 12:57 | 51.53305 | 7.63110 | 3206 ft | 251 kts | 171° |
| 2026-05-07 12:57 | 51.51603 | 7.63412 | 3069 ft | 241 kts | 185° |
| 2026-05-07 12:58 | 51.50065 | 7.62568 | 3005 ft | 233 kts | 215° |
| 2026-05-07 12:58 | 51.48756 | 7.61003 | 3011 ft | 232 kts | 220° |
| 2026-05-07 12:58 | 51.47541 | 7.59384 | 3009 ft | 225 kts | 222° |
| 2026-05-07 12:58 | 51.46354 | 7.57759 | 3008 ft | 224 kts | 224° |
| 2026-05-07 12:59 | 51.45198 | 7.56116 | 3019 ft | 218 kts | 224° |
| 2026-05-07 12:59 | 51.44074 | 7.54501 | 3011 ft | 216 kts | 223° |
| 2026-05-07 12:59 | 51.42944 | 7.52894 | 3012 ft | 217 kts | 224° |
| 2026-05-07 12:59 | 51.41816 | 7.51302 | 3013 ft | 213 kts | 223° |
| 2026-05-07 13:00 | 51.40749 | 7.49778 | 3001 ft | 201 kts | 223° |
| 2026-05-07 13:00 | 51.39731 | 7.48275 | 2893 ft | 196 kts | 233° |
| 2026-05-07 13:00 | 51.39265 | 7.46372 | 2748 ft | 177 kts | 272° |
| 2026-05-07 13:00 | 51.39679 | 7.44645 | 2669 ft | 165 kts | 313° |
| 2026-05-07 13:01 | 51.40591 | 7.43613 | 2587 ft | 159 kts | 335° |
| 2026-05-07 13:01 | 51.41644 | 7.43091 | 2530 ft | 159 kts | 348° |
| 2026-05-07 13:01 | 51.42724 | 7.42756 | 2514 ft | 156 kts | 350° |
| 2026-05-07 13:01 | 51.43796 | 7.42511 | 2505 ft | 157 kts | 1° |
| 2026-05-07 13:02 | 51.44857 | 7.42901 | 2511 ft | 158 kts | 24° |
| 2026-05-07 13:02 | 51.45714 | 7.43994 | 2503 ft | 161 kts | 50° |
| 2026-05-07 13:02 | 51.46295 | 7.45538 | 2487 ft | 162 kts | 58° |
| 2026-05-07 13:02 | 51.46848 | 7.47103 | 2363 ft | 161 kts | 57° |
| 2026-05-07 13:03 | 51.47400 | 7.48664 | 2152 ft | 161 kts | 57° |
| 2026-05-07 13:03 | 51.47929 | 7.50187 | 1937 ft | 149 kts | 58° |
| 2026-05-07 13:03 | 51.48422 | 7.51580 | 1725 ft | 139 kts | 55° |
| 2026-05-07 13:03 | 51.48901 | 7.52904 | 1558 ft | 137 kts | 56° |
| 2026-05-07 13:04 | 51.49373 | 7.54228 | 1331 ft | 135 kts | 58° |
| 2026-05-07 13:04 | 51.49833 | 7.55548 | 1162 ft | 135 kts | 59° |
| 2026-05-07 13:04 | 51.50298 | 7.56869 | 953 ft | 137 kts | 60° |
| 2026-05-07 13:04 | 51.50763 | 7.58181 | 750 ft | 133 kts | 58° |
| 2026-05-07 13:05 | 51.51224 | 7.59486 | 597 ft | 134 kts | 58° |
| 2026-05-07 13:05 | 51.51681 | 7.60790 | 419 ft | 133 kts | 58° |
| 2026-05-07 13:05 | 51.52045 | 7.61825 | 407 ft | 66 kts | 60° |
| 2026-05-07 13:05 | 51.52170 | 7.62187 | 414 ft | 22 kts | 62° |
| 2026-05-07 13:06 | 51.52188 | 7.62291 | 409 ft | 8 kts | 111° |
| 2026-05-07 13:06 | 51.52140 | 7.62354 | 416 ft | 11 kts | 150° |
| 2026-05-07 13:06 | 51.52079 | 7.62397 | 415 ft | 9 kts | 179° |
| 2026-05-07 13:06 | 51.52033 | 7.62332 | 413 ft | 8 kts | 239° |
| 2026-05-07 13:07 | 51.52002 | 7.62246 | 412 ft | 9 kts | 240° |
| 2026-05-07 13:07 | 51.51969 | 7.62152 | 410 ft | 10 kts | 241° |
| 2026-05-07 13:07 | 51.51929 | 7.62038 | 413 ft | 13 kts | 240° |
| 2026-05-07 13:07 | 51.51882 | 7.61905 | 411 ft | 14 kts | 240° |
| 2026-05-07 13:08 | 51.51831 | 7.61762 | 417 ft | 15 kts | 240° |
| 2026-05-07 13:08 | 51.51784 | 7.61629 | 419 ft | 11 kts | 240° |
| 2026-05-07 13:08 | 51.51751 | 7.61535 | 422 ft | 10 kts | 240° |
| 2026-05-07 13:08 | 51.51712 | 7.61424 | 425 ft | 14 kts | 240° |
| 2026-05-07 13:09 | 51.51663 | 7.61282 | 425 ft | 15 kts | 240° |
| 2026-05-07 13:09 | 51.51610 | 7.61131 | 422 ft | 10 kts | 242° |
| 2026-05-07 13:09 | 51.51582 | 7.61064 | 424 ft | 7 kts | 220° |
| 2026-05-07 13:09 | 51.51542 | 7.61060 | 434 ft | 6 kts | 171° |
| 2026-05-07 13:10 | 51.51503 | 7.61028 | 426 ft | 7 kts | 231° |
| 2026-05-07 13:10 | 51.51478 | 7.60967 | 424 ft | 5 kts | 232° |
| 2026-05-07 13:10 | 51.51450 | 7.60962 | 431 ft | 3 kts | 165° |
| 2026-05-07 13:10 | 51.51431 | 7.60981 | 427 ft | 4 kts | 144° |
| 2026-05-07 13:11 | 51.51418 | 7.60997 | 427 ft | 1 kts | 143° |
| 2026-05-07 13:11 | 51.51416 | 7.60999 | 428 ft | 0 kts | 143° |